• Join FlightAware (Why Join?)
  • Login
  • US Flag 
05:15AM EDT


 

Airport Tracker/Info


-or-


 

Live Flight TrackerFlight Track Log ✈ GGN7280 ✈ 16-May-2013 ✈ CYYZ - KALB

Flight Track Log - Related Links

Times and Time Zones

All times are in EDT time to prevent confusion due to time zone crossing. See the GGN7280 flight status page for this flight to view local times or setup timezone preferences in your user account.

Time Position Orientation Groundspeed Altitude Reporting Facility
EDT Latitude Longitude Course Direction KTS MPH feet Rate Location/Type
09:34AM 43.6167 -79.6167 154° Southeast 190 219 1,900  Level Toronto Center
09:35AM 43.5667 -79.5833 154° Southeast 210 242 3,000 960 Climbing Toronto Center
09:36AM 43.5000 -79.5667 170° South 230 265 3,900 720 Climbing Toronto Center
09:37AM 43.4833 -79.4667 103° East 250 288 4,500 600 Climbing Toronto Center
09:38AM 43.5000 -79.3833 75° East 260 299 5,200 720 Climbing Toronto Center
09:39AM 43.5000 -79.2667 90° East 260 299 6,000 780 Climbing Toronto Center
09:40AM 43.5000 -79.1667 90° East 270 311 6,800 780 Climbing Toronto Center
09:41AM 43.4833 -79.0667 103° East 270 311 7,600 780 Climbing Toronto Center
09:42AM 43.4667 -78.9667 103° East 270 311 8,400 660 Climbing Toronto Center
09:43AM 43.4667 -78.8500 90° East 280 322 9,000 300 Climbing Toronto Center
09:44AM 43.4500 -78.7333 101° East 290 334 9,000  Level Toronto Center
09:45AM 43.4333 -78.6500 105° East 300 345 9,000  Level Toronto Center
09:46AM 43.4167 -78.5333 101° East 300 345 9,000  Level Toronto Center
09:47AM 43.4139 -78.4486 93° East 291 335 9,000  Level Cleveland Center
09:48AM 43.3989 -78.3175 99° East 296 341 9,000  Level Cleveland Center
09:49AM 43.3861 -78.2094 99° East 293 337 9,000  Level Cleveland Center
09:50AM 43.3714 -78.0986 100° East 294 338 9,000  Level Cleveland Center
09:51AM 43.3586 -77.9964 100° East 295 339 9,000  Level Cleveland Center
09:52AM 43.3436 -77.8828 100° East 294 338 9,000  Level Cleveland Center
09:53AM 43.3286 -77.7722 101° East 296 341 9,000  Level Cleveland Center
09:54AM 43.3156 -77.6642 99° East 293 337 9,000  Level Cleveland Center
09:55AM 43.3022 -77.5536 99° East 293 337 9,000  Level Cleveland Center
09:56AM 43.2867 -77.4403 101° East 295 339 9,000  Level Cleveland Center
09:57AM 43.2731 -77.3297 100° East 294 338 9,000  Level Cleveland Center
09:58AM 43.2597 -77.2219 100° East 293 337 9,000 -60 Level Cleveland Center
10:00AM 43.2167 -76.9833 104° East 290 334 8,900 -60 Descending Toronto Center
10:01AM 43.2000 -76.8667 101° East 290 334 8,900  Level Toronto Center
10:03AM 43.1797 -76.6406 97° East 291 335 9,000  Climbing Boston Center
10:05AM 43.1647 -76.5311 101° East 293 337 9,000  Level Boston Center
10:06AM 43.1478 -76.4219 102° East 293 337 9,000  Level Boston Center
10:07AM 43.1350 -76.3128 99° East 295 339 9,000  Level Boston Center
10:08AM 43.1158 -76.2008 103° East 295 339 9,000  Level Boston Center
10:09AM 43.1000 -76.1086 103° East 289 333 9,000  Level Boston Center
10:10AM 43.0853 -75.9797 99° East 291 335 9,000  Level Boston Center
10:11AM 43.0700 -75.8708 101° East 295 339 9,000  Level Boston Center
10:12AM 43.0522 -75.7619 103° East 295 339 9,000  Level Boston Center
10:13AM 43.0367 -75.6503 101° East 295 339 9,000  Level Boston Center
10:14AM 43.0208 -75.5442 102° East 293 337 9,000  Level Boston Center
10:15AM 43.0050 -75.4328 101° East 293 337 9,000  Level Boston Center
10:16AM 42.9869 -75.3239 103° East 293 337 9,000  Level Boston Center
10:17AM 42.9711 -75.2069 100° East 293 337 9,000  Level Boston Center
10:18AM 42.9550 -75.0983 101° East 297 342 9,000  Level Boston Center
10:19AM 42.9367 -74.9869 103° East 297 342 9,000  Level Boston Center
10:20AM 42.9222 -74.8900 101° East 296 341 9,000 -60 Level Boston Center
10:21AM 42.9058 -74.7758 101° East 296 341 8,900 -60 Descending Boston Center
10:22AM 42.8853 -74.6561 103° East 297 342 8,900  Level Boston Center
10:23AM 42.8667 -74.5419 103° East 296 341 8,900 -180 Level Boston Center
10:24AM 42.8500 -74.4197 100° East 300 345 8,600 -480 Descending Boston Center
10:25AM 42.8417 -74.3033 96° East 312 359 7,900 -780 Descending Boston Center
10:26AM 42.8289 -74.1897 99° East 305 351 7,100 -780 Descending Boston Center
10:27AM 42.8306 -74.0792 89° East 287 330 6,400 -900 Descending Boston Center
10:28AM 42.8381 -73.9719 85° East 287 330 5,400 -900 Descending Boston Center
10:29AM 42.8478 -73.8644 83° East 287 330 4,700 -780 Descending Boston Center
10:30AM 42.8597 -73.7458 82° East 272 313 3,800 -840 Descending Boston Center